• Join FlightAware (Why Join?)
  • Login
  • US Flag 
03:18PM EDT


 

Airport Tracker/Info


-or-


 

Live Flight TrackerFlight Track Log ✈ EJA930 ✈ 28-Aug-2013 ✈ KCLE - KSJC

Flight Track Log - Related Links

Times and Time Zones

All times are in EDT time to prevent confusion due to time zone crossing. See the EJA930 flight status page for this flight to view local times or setup timezone preferences in your user account.

Time Position Orientation Groundspeed Altitude Reporting Facility
EDT Latitude Longitude Course Direction KTS MPH feet Rate Location/Type
05:46PM 41.4194 -81.8375 North 176 203 1,800  Level Cleveland Center
05:47PM 41.4508 -81.8353 North 203 234 3,700 3,120 Climbing Cleveland Center
05:48PM 41.4669 -81.8856 293° West 243 280 5,600 2,400 Climbing Cleveland Center
05:49PM 41.4428 -81.9819 252° West 287 330 7,800 2,040 Climbing Cleveland Center
05:50PM 41.4164 -82.0867 251° West 297 342 9,800 1,620 Climbing Cleveland Center
05:51PM 41.3811 -82.2325 252° West 344 396 11,600 1,200 Climbing Cleveland Center
05:52PM 41.3544 -82.3425 252° West 344 396 12,600 960 Climbing Cleveland Center
05:53PM 41.3189 -82.4714 250° West 358 412 13,600 960 Climbing Cleveland Center
05:54PM 41.2958 -82.6061 257° West 370 426 14,600 960 Climbing Cleveland Center
05:55PM 41.2767 -82.7439 260° West 383 441 15,600 960 Climbing Cleveland Center
05:56PM 41.2592 -82.8842 261° West 388 447 16,600 960 Climbing Cleveland Center
05:57PM 41.2564 -83.0247 269° West 388 447 17,600 900 Climbing Cleveland Center
05:58PM 41.2953 -83.1533 292° West 377 434 18,500 1,200 Climbing Cleveland Center
05:59PM 41.3400 -83.2964 293° West 369 425 20,100 1,500 Climbing Cleveland Center
06:00PM 41.3806 -83.4225 293° West 369 425 21,600 1,380 Climbing Cleveland Center
06:01PM 41.4211 -83.5489 293° West 374 430 22,900 1,200 Climbing Cleveland Center
06:02PM 41.4511 -83.6833 287° West 379 436 24,000 900 Climbing Cleveland Center
06:03PM 41.4578 -83.8111 274° West 388 447 24,800 960 Climbing Cleveland Center
06:04PM 41.4619 -83.9583 272° West 394 453 26,000 1,200 Climbing Cleveland Center
06:05PM 41.4681 -84.1056 273° West 394 453 27,200 1,080 Climbing Cleveland Center
06:06PM 41.4753 -84.2344 274° West 403 464 28,200 960 Climbing Chicago Center
06:07PM 41.4803 -84.3844 273° West 404 465 29,100 900 Climbing Chicago Center
06:08PM 41.4869 -84.5697 273° West 415 478 30,100 900 Climbing Chicago Center
06:09PM 41.4919 -84.7292 272° West 427 491 31,000 780 Climbing Chicago Center
06:10PM 41.4969 -84.8900 272° West 432 497 31,800 720 Climbing Chicago Center
06:11PM 41.5014 -85.0539 272° West 438 504 32,600 720 Climbing Chicago Center
06:12PM 41.5047 -85.2225 272° West 447 514 33,400 840 Climbing Chicago Center
06:13PM 41.5053 -85.3983 270° West 460 529 34,400 1,200 Climbing Chicago Center
06:14PM 41.5128 -85.5739 273° West 463 533 36,000 1,500 Climbing Chicago Center
06:15PM 41.5178 -85.7356 272° West 436 502 37,500 960 Climbing Chicago Center
06:16PM 41.5217 -85.9289 272° West 432 497 38,000 240 Climbing Chicago Center
06:17PM 41.5258 -86.1011 272° West 456 525 38,000  Level Chicago Center
06:18PM 41.5289 -86.2772 271° West 470 541 38,000  Level Chicago Center
06:19PM 41.5322 -86.4550 271° West 479 551 38,000  Level Chicago Center
06:20PM 41.5344 -86.6328 271° West 476 548 38,000  Level Chicago Center
06:21PM 41.5372 -86.8342 271° West 476 548 38,000  Level Chicago Center
06:23PM 41.5389 -87.0117 271° West 479 551 38,000  Level Chicago Center
06:24PM 41.5408 -87.1881 271° West 477 549 38,000  Level Chicago Center
06:25PM 41.5422 -87.3658 271° West 481 554 38,000  Level Chicago Center
06:26PM 41.5444 -87.5772 271° West 479 551 38,000 60 Level Chicago Center
06:27PM 41.5461 -87.7533 271° West 484 557 38,200 480 Climbing Chicago Center
06:28PM 41.5472 -87.9244 271° West 473 544 39,100 840 Climbing Chicago Center
06:29PM 41.5478 -88.1267 270° West 469 540 40,000 420 Climbing Chicago Center
06:30PM 41.5472 -88.2989 270° West 476 548 40,000  Level Chicago Center
06:31PM 41.5467 -88.4728 270° West 476 548 40,000  Level Chicago Center
06:32PM 41.5472 -88.6489 270° West 480 552 40,000  Level Chicago Center
06:33PM 41.5472 -88.8261 270° West 482 555 40,000  Level Chicago Center
06:34PM 41.5481 -89.0392 270° West 483 556 40,000  Level Chicago Center
06:35PM 41.5478 -89.2175 270° West 485 558 40,000  Level Chicago Center
06:36PM 41.5478 -89.3981 270° West 488 562 40,000  Level Chicago Center
06:37PM 41.5483 -89.5961 270° West 485 558 40,000  Level Chicago Center
06:38PM 41.5461 -89.7767 269° West 489 563 40,000  Level Chicago Center
06:39PM 41.5450 -89.9553 270° West 486 559 40,000  Level Chicago Center
06:40PM 41.5444 -90.1339 270° West 486 559 40,000  Level Chicago Center
06:41PM 41.5411 -90.3150 269° West 492 566 40,000  Level Chicago Center
06:42PM 41.5378 -90.5314 269° West 488 562 40,000  Level Chicago Center
06:43PM 41.5358 -90.6969 269° West 484 557 40,000  Level Chicago Center
06:44PM 41.5328 -90.8781 269° West 490 564 40,000  Level Chicago Center
06:45PM 41.5286 -91.0933 269° West 488 562 40,000  Level Chicago Center
06:46PM 41.5258 -91.2717 269° West 486 559 40,000  Level Chicago Center
06:47PM 41.5225 -91.4517 269° West 488 562 40,000  Level Chicago Center
06:48PM 41.5178 -91.6300 268° West 486 559 40,000  Level Chicago Center
06:49PM 41.5000 -91.8081 262° West 487 560 40,000  Level Chicago Center
06:50PM 41.4806 -92.0206 263° West 485 558 40,000  Level Chicago Center
06:51PM 41.4636 -92.1983 263° West 487 560 40,000  Level Chicago Center
06:53PM 41.4461 -92.3733 262° West 483 556 40,000  Level Chicago Center
06:54PM 41.4281 -92.5467 262° West 482 555 40,000  Level Chicago Center
06:55PM 41.4103 -92.7208 262° West 481 554 40,000  Level Chicago Center
06:56PM 41.3894 -92.9289 262° West 480 552 40,000  Level Chicago Center
06:57PM 41.3664 -93.1394 262° West 481 554 40,000  Level Minneapolis Center
06:58PM 41.3475 -93.3153 262° West 484 557 40,000  Level Minneapolis Center
06:59PM 41.3289 -93.4900 262° West 484 557 40,000  Level Minneapolis Center
07:00PM 41.3083 -93.6936 262° West 474 545 40,000  Level Minneapolis Center
07:01PM 41.2881 -93.8667 261° West 477 549 40,000  Level Minneapolis Center
07:02PM 41.2661 -94.0450 261° West 484 557 40,000  Level Minneapolis Center
07:03PM 41.2453 -94.2186 261° West 486 559 40,000  Level Minneapolis Center
07:04PM 41.2275 -94.3919 262° West 478 550 40,000  Level Minneapolis Center
07:05PM 41.2028 -94.6028 261° West 481 554 40,000  Level Minneapolis Center
07:06PM 41.1806 -94.7789 261° West 483 556 40,000  Level Minneapolis Center
07:07PM 41.1592 -94.9528 261° West 480 552 40,000  Level Minneapolis Center
07:08PM 41.1386 -95.1250 261° West 475 547 40,000  Level Minneapolis Center
07:09PM 41.1161 -95.2994 260° West 477 549 40,000  Level Minneapolis Center
07:10PM 41.0928 -95.4742 260° West 479 551 40,000  Level Minneapolis Center
07:11PM 41.0692 -95.6467 260° West 476 548 40,000  Level Minneapolis Center
07:12PM 41.0408 -95.8558 260° West 475 547 40,000  Level Minneapolis Center
07:13PM 41.0186 -96.0339 261° West 481 554 40,000  Level Minneapolis Center
07:14PM 40.9947 -96.2111 260° West 484 557 40,000  Level Minneapolis Center
07:15PM 40.9717 -96.3867 260° West 483 556 40,000  Level Minneapolis Center
07:17PM 40.9481 -96.5622 260° West 483 556 40,000  Level Minneapolis Center
07:18PM 40.9239 -96.7383 260° West 485 558 40,000  Level Minneapolis Center
07:19PM 40.9056 -96.9172 262° West 486 559 40,000  Level Minneapolis Center
07:20PM 40.8850 -97.1317 263° West 489 563 40,000  Level Minneapolis Center
07:21PM 40.8675 -97.3117 263° West 491 565 40,000  Level Minneapolis Center
07:22PM 40.8500 -97.4947 263° West 494 568 40,000  Level Minneapolis Center
07:23PM 40.8317 -97.6747 262° West 495 570 40,000  Level Minneapolis Center
07:24PM 40.8136 -97.8553 263° West 495 570 40,000  Level Minneapolis Center
07:25PM 40.7950 -98.0358 262° West 495 570 40,000  Level Minneapolis Center
07:26PM 40.7756 -98.2169 262° West 496 571 40,000  Level Minneapolis Center
07:27PM 40.7522 -98.4331 262° West 494 568 40,000  Level Minneapolis Center
07:28PM 40.7319 -98.6144 262° West 495 570 40,000  Level Minneapolis Center
07:29PM 40.7114 -98.7981 262° West 499 574 40,000  Level Minneapolis Center
07:30PM 40.6906 -98.9803 261° West 499 574 40,000  Level Minneapolis Center
07:31PM 40.6700 -99.1639 262° West 501 577 40,000  Level Minneapolis Center
07:32PM 40.6578 -99.2719 262° West 499 574 40,000  Level Denver Center
07:33PM 40.6364 -99.4556 261° West 504 580 40,000  Level Denver Center
07:34PM 40.6106 -99.6744 261° West 504 580 40,000  Level Denver Center
07:35PM 40.5883 -99.8572 261° West 507 583 40,000  Level Denver Center
07:36PM 40.5650 -100.0489 261° West 509 586 40,000  Level Denver Center
07:37PM 40.5428 -100.2228 261° West 504 580 40,000  Level Denver Center
07:38PM 40.5167 -100.4281 261° West 507 583 40,000  Level Denver Center
07:39PM 40.4936 -100.6033 260° West 505 581 40,000  Level Denver Center
07:40PM 40.4711 -100.7794 261° West 506 582 40,000  Level Denver Center
07:41PM 40.4447 -100.9836 260° West 505 581 40,000  Level Denver Center
07:42PM 40.4136 -101.2172 260° West 508 585 40,000  Level Denver Center
07:43PM 40.3894 -101.3906 260° West 505 581 40,000  Level Denver Center
07:44PM 40.3611 -101.5928 260° West 505 581 40,000  Level Denver Center
07:45PM 40.3375 -101.7653 260° West 504 580 40,000  Level Denver Center
07:46PM 40.3125 -101.9361 259° West 500 575 40,000  Level Denver Center
07:47PM 40.2836 -102.1381 259° West 506 582 40,000  Level Denver Center
07:48PM 40.2581 -102.3092 259° West 501 577 40,000  Level Denver Center
07:49PM 40.2283 -102.5114 259° West 507 583 40,000  Level Denver Center
07:51PM 40.2022 -102.6856 259° West 513 590 40,000  Level Denver Center
07:52PM 40.1753 -102.8686 259° West 515 593 40,000  Level Denver Center
07:53PM 40.1422 -103.0883 259° West 515 593 40,000  Level Denver Center
07:54PM 40.1133 -103.2692 258° West 512 589 40,000  Level Denver Center
07:55PM 40.0856 -103.4519 259° West 513 590 40,000  Level Denver Center
07:56PM 40.0558 -103.6328 258° West 512 589 40,000  Level Denver Center
07:57PM 40.0272 -103.8178 259° West 525 604 40,000  Level Denver Center
07:58PM 39.9978 -103.9983 258° West 513 590 40,000  Level Denver Center
07:59PM 39.9614 -104.2186 258° West 521 600 40,000  Level Denver Center
08:00PM 39.9319 -104.3989 258° West 515 593 40,000  Level Denver Center
08:01PM 39.9039 -104.5769 258° West 509 586 40,000  Level Denver Center
08:02PM 39.8697 -104.7561 256° West 516 594 40,100 600 Climbing Denver Center
08:03PM 39.8297 -104.9678 256° West 506 582 41,300 960 Climbing Denver Center
08:04PM 39.7936 -105.1458 255° West 519 597 42,200 780 Climbing Denver Center
08:05PM 39.7603 -105.3131 256° West 482 555 43,000 360 Climbing Denver Center
08:06PM 39.7258 -105.4850 255° West 495 570 43,000  Level Denver Center
08:07PM 39.6917 -105.6597 256° West 503 579 43,000  Level Denver Center
08:08PM 39.6514 -105.8653 256° West 488 562 43,000  Level Denver Center
08:09PM 39.6161 -106.0411 255° West 500 575 43,000  Level Denver Center
08:10PM 39.5781 -106.2261 255° West 503 579 43,000  Level Denver Center
08:11PM 39.5425 -106.4011 255° West 505 581 43,000  Level Denver Center
08:12PM 39.4922 -106.5542 247° West 495 570 43,000  Level Denver Center
08:13PM 39.4256 -106.7381 245° Southwest 512 589 43,000  Level Denver Center
08:14PM 39.3978 -106.9019 258° West 497 572 43,000  Level Denver Center
08:15PM 39.3750 -107.1006 262° West 501 577 43,000  Level Denver Center
08:16PM 39.3542 -107.2681 261° West 497 572 43,000  Level Denver Center
08:17PM 39.3300 -107.4636 261° West 494 568 43,000  Level Denver Center
08:18PM 39.3083 -107.6331 261° West 496 571 43,000  Level Denver Center
08:19PM 39.2836 -107.8292 261° West 496 571 43,000  Level Denver Center
08:21PM 39.2622 -107.9972 261° West 493 567 43,000  Level Denver Center
08:22PM 39.2372 -108.1928 261° West 493 567 43,000  Level Denver Center
08:23PM 39.2153 -108.3594 260° West 506 582 43,000  Level Denver Center
08:24PM 39.1931 -108.5308 261° West 504 580 43,000  Level Denver Center
08:25PM 39.1658 -108.7267 260° West 493 567 43,000  Level Denver Center
08:26PM 39.1431 -108.8939 260° West 492 566 43,000  Level Denver Center
08:27PM 39.1161 -109.0883 260° West 491 565 43,000  Level Denver Center
08:28PM 39.0931 -109.2539 260° West 489 563 43,000  Level Denver Center
08:29PM 39.0669 -109.4469 260° West 488 562 43,000  Level Denver Center
08:30PM 39.0428 -109.6106 259° West 486 559 43,000  Level Denver Center
08:31PM 39.0214 -109.7753 261° West 486 559 43,000  Level Denver Center
08:32PM 38.9964 -109.9392 259° West 488 562 43,000  Level Salt Lake Center
08:33PM 38.9714 -110.1017 259° West 486 559 43,000  Level Salt Lake Center
08:34PM 38.9444 -110.2925 260° West 486 559 43,000  Level Salt Lake Center
08:35PM 38.9197 -110.4553 259° West 486 559 43,000  Level Salt Lake Center
08:36PM 38.8956 -110.6200 259° West 490 564 43,000  Level Salt Lake Center
08:37PM 38.8650 -110.8072 258° West 482 555 43,000  Level Salt Lake Center
08:38PM 38.8422 -110.9608 259° West 484 557 43,000  Level Salt Lake Center
08:39PM 38.8106 -111.1636 259° West 485 558 43,000  Level Salt Lake Center
08:40PM 38.7833 -111.3308 258° West 482 555 43,000  Level Salt Lake Center
08:41PM 38.7569 -111.5000 259° West 484 557 43,000  Level Salt Lake Center
08:42PM 38.7297 -111.6664 258° West 480 552 43,000  Level Salt Lake Center
08:43PM 38.7025 -111.8344 258° West 483 556 43,000  Level Salt Lake Center
08:44PM 38.6744 -111.9997 258° West 479 551 43,000  Level Salt Lake Center
08:45PM 38.6419 -112.1997 258° West 481 554 43,000  Level Salt Lake Center
08:46PM 38.6139 -112.3642 258° West 476 548 43,000  Level Salt Lake Center
08:47PM 38.5861 -112.5308 258° West 481 554 43,000  Level Salt Lake Center
08:48PM 38.5572 -112.6942 257° West 476 548 43,000  Level Salt Lake Center
08:49PM 38.5286 -112.8592 258° West 478 550 43,000  Level Salt Lake Center
08:50PM 38.5003 -113.0228 258° West 475 547 43,000  Level Salt Lake Center
08:51PM 38.4719 -113.1867 258° West 474 545 43,000  Level Salt Lake Center
08:52PM 38.4361 -113.3825 257° West 475 547 43,000  Level Salt Lake Center
08:53PM 38.4072 -113.5450 257° West 474 545 43,000  Level Salt Lake Center
08:54PM 38.3778 -113.7083 257° West 475 547 43,000  Level Salt Lake Center
08:55PM 38.3569 -113.8742 261° West 479 551 43,000  Level Salt Lake Center
08:56PM 38.3864 -114.0414 283° West 488 562 43,000  Level Salt Lake Center
08:57PM 38.4192 -114.2078 284° West 486 559 43,000  Level Salt Lake Center
08:58PM 38.4583 -114.4075 284° West 486 559 43,000  Level Salt Lake Center
08:59PM 38.4917 -114.5731 284° West 483 556 43,000  Level Salt Lake Center
09:00PM 38.5261 -114.7375 285° West 481 554 43,000  Level Salt Lake Center
09:02PM 38.5592 -114.9019 284° West 480 552 43,000  Level Salt Lake Center
09:03PM 38.5878 -115.0658 283° West 476 548 43,000  Level Salt Lake Center
09:04PM 38.5606 -115.2275 258° West 467 537 43,000  Level Salt Lake Center
09:05PM 38.5136 -115.3908 250° West 464 534 43,000  Level Salt Lake Center
09:06PM 38.4694 -115.5442 250° West 462 532 43,000  Level Salt Lake Center
09:07PM 38.4261 -115.6975 250° West 461 531 43,000  Level Salt Lake Center
09:08PM 38.3814 -115.8506 250° West 462 532 43,000  Level Salt Lake Center
09:09PM 38.3369 -116.0036 250° West 460 529 43,000  Level Salt Lake Center
09:10PM 38.2825 -116.1881 249° West 463 533 43,000  Level Salt Lake Center
09:11PM 38.2364 -116.3422 249° West 466 536 43,000  Level Salt Lake Center
09:12PM 38.2006 -116.4653 250° West 465 535 43,000  Level Oakland Center
09:13PM 38.1558 -116.6172 250° West 462 532 43,000  Level Oakland Center
09:14PM 38.1092 -116.7694 249° West 462 532 43,000  Level Oakland Center
09:15PM 38.0628 -116.9228 249° West 462 532 43,000  Level Oakland Center
09:16PM 38.0128 -117.0786 248° West 467 537 43,000  Level Oakland Center
09:17PM 37.9578 -117.2319 246° West 467 537 43,000  Level Oakland Center
09:18PM 37.9042 -117.3828 246° West 465 535 43,000  Level Oakland Center
09:19PM 37.8522 -117.5314 246° West 461 531 43,000 -120 Level Oakland Center
09:20PM 37.8144 -117.6881 253° West 462 532 42,800 -900 Descending Oakland Center
09:21PM 37.7772 -117.8428 253° West 461 531 41,200 -1,800 Descending Oakland Center
09:22PM 37.7406 -117.9950 253° West 456 525 39,200 -1,980 Descending Oakland Center
09:23PM 37.7028 -118.1472 253° West 454 522 37,200 -2,220 Descending Oakland Center
09:24PM 37.6578 -118.3319 253° West 458 527 34,700 -2,220 Descending Oakland Center
09:25PM 37.6194 -118.4878 253° West 463 533 32,700 -2,040 Descending Oakland Center
09:26PM 37.5783 -118.6511 252° West 484 557 30,600 -1,380 Descending Oakland Center
09:27PM 37.5411 -118.8031 253° West 481 554 30,000 -300 Descending Oakland Center
09:28PM 37.5003 -118.9611 252° West 477 549 30,000 -60 Level Oakland Center
09:29PM 37.4611 -119.1158 252° West 468 539 29,900 -840 Descending Oakland Center
09:30PM 37.4197 -119.2750 252° West 477 549 28,300 -1,980 Descending Oakland Center
09:31PM 37.3717 -119.4639 252° West 474 545 25,900 -2,160 Descending Oakland Center
09:32PM 37.3319 -119.6139 252° West 460 529 23,900 -1,920 Descending Oakland Center
09:33PM 37.2931 -119.7661 252° West 459 528 22,000 -1,800 Descending Oakland Center
09:34PM 37.2733 -119.9061 260° West 457 526 20,300 -1,080 Descending Oakland Center
09:35PM 37.2547 -120.0856 263° West 436 502 19,900 -840 Descending Oakland Center
09:36PM 37.2381 -120.2339 262° West 432 497 18,700 -1,380 Descending Oakland Center
09:37PM 37.2186 -120.3825 261° West 432 497 17,100 -1,500 Descending Oakland Center
09:38PM 37.1911 -120.5239 256° West 421 484 15,700 -1,740 Descending Oakland Center
09:39PM 37.1608 -120.6656 255° West 421 484 13,600 -2,100 Descending Oakland Center
09:40PM 37.1319 -120.8019 255° West 410 472 11,400 -1,860 Descending Oakland Center
09:41PM 37.1039 -120.9356 255° West 395 455 9,900 -720 Descending Oakland Center
09:42PM 37.0744 -121.0722 255° West 404 465 10,000  Climbing Oakland Center
09:43PM 37.0414 -121.2175 254° West 402 463 10,000 -120 Level Oakland Center
09:44PM 37.0172 -121.3264 254° West 324 373 9,800 -1,020 Descending Oakland Center
09:45PM 36.9961 -121.4183 254° West 279 321 8,000 -900 Descending Oakland Center
09:46PM 37.0203 -121.5075 289° West 291 335 8,000 -360 Level Oakland Center
09:47PM 37.0769 -121.5814 314° West 295 339 7,300 -1,080 Descending Oakland Center
09:48PM 37.1306 -121.6567 312° West 289 333 5,900 -1,380 Descending Oakland Center
09:49PM 37.1806 -121.7306 310° West 285 328 4,500 -1,380 Descending Oakland Center
09:50PM 37.2403 -121.7942 320° Northwest 250 288 3,100 -1,200 Descending Oakland Center
09:51PM 37.2833 -121.8414 319° Northwest 223 257 2,100 -960 Descending Oakland Center
09:52PM 37.3150 -121.8744 320° Northwest 177 204 1,200 -780 Descending Oakland Center
09:53PM 37.3400 -121.9039 317° Northwest 141 162 600 9,120 Descending Oakland Center
09:54PM 37.3642 -121.9308 318° Northwest 127 146 20,000 19,080 Climbing Oakland Center
09:56PM 37.3627 -121.9291 North  Level Estimated